Airport Name : Kagoshima

Other Name : Kagoshima

ICAO : RJFK

IATA : KOJ

FAA :

Latitude : 31.803397

Longitude : 130.719408

Country : Japan

Local Date and Time : 4/26/2018 1:04:00 PM

 

TAF (Terminal Aerodrome Forecast)

TAF RJFK 252305Z 2600/2706 20007KT 9999 FEW030 BECMG 2609/2611 34005KT

 

METAR (METeorological Aerodrome Report)

RJFK 260349Z 18010KT 9999 FEW020 BKN/// 22/11 Q1012 RMK 1CU020 A2989 VOLCANIC ASH CLOUD S-SW

RJFK 260300Z 28007KT 230V320 9999 FEW020 BKN/// 22/13 Q1012

RJFK 260200Z VRB04KT 9999 FEW020 SCT030 BKN/// 20/12 Q1012 RMK 1CU020 3CU030 A2991 VOLCANIC ASH CLOUD S

RJFK 260100Z VRB02KT 9999 FEW020 BKN/// 19/13 Q1013 RMK 1CU020 A2992 VOLCANIC ASH CLOUD S